sensor_id;sensor_type;location;lat;lon;timestamp;P1;durP1;ratioP1;P2;durP2;ratioP2
22916;SDS011;11624;53.250;7.456;2023-06-10T00:00:50;14.35;;;4.70;;
22916;SDS011;11624;53.250;7.456;2023-06-10T00:03:19;18.60;;;5.25;;
22916;SDS011;11624;53.250;7.456;2023-06-10T00:05:50;13.80;;;4.68;;
22916;SDS011;11624;53.250;7.456;2023-06-10T00:08:18;12.00;;;4.80;;
22916;SDS011;11624;53.250;7.456;2023-06-10T00:10:47;14.45;;;5.18;;
22916;SDS011;11624;53.250;7.456;2023-06-10T00:13:15;13.10;;;4.68;;
22916;SDS011;11624;53.250;7.456;2023-06-10T00:15:44;14.10;;;5.18;;
22916;SDS011;11624;53.250;7.456;2023-06-10T00:18:14;14.35;;;5.35;;
22916;SDS011;11624;53.250;7.456;2023-06-10T00:20:42;16.13;;;5.18;;
22916;SDS011;11624;53.250;7.456;2023-06-10T00:23:11;12.95;;;5.00;;
22916;SDS011;11624;53.250;7.456;2023-06-10T00:25:39;14.20;;;5.05;;
22916;SDS011;11624;53.250;7.456;2023-06-10T00:28:08;14.45;;;4.68;;
22916;SDS011;11624;53.250;7.456;2023-06-10T00:30:36;16.10;;;5.40;;
22916;SDS011;11624;53.250;7.456;2023-06-10T00:33:04;13.90;;;5.25;;
22916;SDS011;11624;53.250;7.456;2023-06-10T00:35:35;12.98;;;4.65;;
22916;SDS011;11624;53.250;7.456;2023-06-10T00:38:03;14.02;;;4.85;;
22916;SDS011;11624;53.250;7.456;2023-06-10T00:40:33;14.50;;;5.00;;
22916;SDS011;11624;53.250;7.456;2023-06-10T00:43:01;15.20;;;4.50;;
22916;SDS011;11624;53.250;7.456;2023-06-10T00:45:29;12.43;;;4.72;;
22916;SDS011;11624;53.250;7.456;2023-06-10T00:47:57;14.60;;;4.95;;
22916;SDS011;11624;53.250;7.456;2023-06-10T00:50:26;15.30;;;4.70;;
22916;SDS011;11624;53.250;7.456;2023-06-10T00:52:56;13.85;;;4.25;;
22916;SDS011;11624;53.250;7.456;2023-06-10T00:55:24;16.67;;;4.82;;
22916;SDS011;11624;53.250;7.456;2023-06-10T00:57:53;15.13;;;4.88;;
22916;SDS011;11624;53.250;7.456;2023-06-10T01:00:22;14.82;;;5.00;;
22916;SDS011;11624;53.250;7.456;2023-06-10T01:02:50;13.98;;;4.80;;
22916;SDS011;11624;53.250;7.456;2023-06-10T01:05:19;14.65;;;4.82;;
22916;SDS011;11624;53.250;7.456;2023-06-10T01:07:52;13.00;;;4.65;;
22916;SDS011;11624;53.250;7.456;2023-06-10T01:10:29;15.25;;;5.10;;
22916;SDS011;11624;53.250;7.456;2023-06-10T01:13:02;14.15;;;4.25;;
22916;SDS011;11624;53.250;7.456;2023-06-10T01:15:31;15.88;;;5.00;;
22916;SDS011;11624;53.250;7.456;2023-06-10T01:18:00;14.50;;;4.57;;
22916;SDS011;11624;53.250;7.456;2023-06-10T01:20:30;14.88;;;5.00;;
22916;SDS011;11624;53.250;7.456;2023-06-10T01:23:01;17.40;;;5.05;;
22916;SDS011;11624;53.250;7.456;2023-06-10T01:25:30;14.52;;;4.85;;
22916;SDS011;11624;53.250;7.456;2023-06-10T01:28:03;15.32;;;5.40;;
22916;SDS011;11624;53.250;7.456;2023-06-10T01:30:36;17.65;;;4.68;;
22916;SDS011;11624;53.250;7.456;2023-06-10T01:33:08;13.35;;;4.30;;
22916;SDS011;11624;53.250;7.456;2023-06-10T01:35:38;14.98;;;4.70;;
22916;SDS011;11624;53.250;7.456;2023-06-10T01:38:09;13.25;;;5.15;;
22916;SDS011;11624;53.250;7.456;2023-06-10T01:40:40;19.88;;;5.38;;
22916;SDS011;11624;53.250;7.456;2023-06-10T01:43:09;14.70;;;5.28;;
22916;SDS011;11624;53.250;7.456;2023-06-10T01:45:38;18.33;;;4.97;;
22916;SDS011;11624;53.250;7.456;2023-06-10T01:48:07;16.58;;;5.50;;
22916;SDS011;11624;53.250;7.456;2023-06-10T01:50:35;15.48;;;5.22;;
22916;SDS011;11624;53.250;7.456;2023-06-10T01:53:03;20.92;;;5.78;;
22916;SDS011;11624;53.250;7.456;2023-06-10T01:55:34;14.93;;;5.18;;
22916;SDS011;11624;53.250;7.456;2023-06-10T01:58:02;15.88;;;5.63;;
22916;SDS011;11624;53.250;7.456;2023-06-10T02:00:30;15.07;;;5.32;;
22916;SDS011;11624;53.250;7.456;2023-06-10T02:02:58;16.25;;;5.30;;
22916;SDS011;11624;53.250;7.456;2023-06-10T02:05:26;22.85;;;6.03;;
22916;SDS011;11624;53.250;7.456;2023-06-10T02:07:54;16.27;;;5.68;;
22916;SDS011;11624;53.250;7.456;2023-06-10T02:10:23;19.55;;;5.10;;
22916;SDS011;11624;53.250;7.456;2023-06-10T02:12:53;18.33;;;5.93;;
22916;SDS011;11624;53.250;7.456;2023-06-10T02:15:21;18.65;;;6.18;;
22916;SDS011;11624;53.250;7.456;2023-06-10T02:17:49;16.02;;;5.72;;
22916;SDS011;11624;53.250;7.456;2023-06-10T02:20:17;13.90;;;5.30;;
22916;SDS011;11624;53.250;7.456;2023-06-10T02:22:45;18.20;;;6.03;;
22916;SDS011;11624;53.250;7.456;2023-06-10T02:25:14;17.48;;;6.03;;
22916;SDS011;11624;53.250;7.456;2023-06-10T02:27:42;19.27;;;6.20;;
22916;SDS011;11624;53.250;7.456;2023-06-10T02:30:12;17.92;;;6.10;;
22916;SDS011;11624;53.250;7.456;2023-06-10T02:32:41;18.13;;;6.22;;
22916;SDS011;11624;53.250;7.456;2023-06-10T02:35:09;20.88;;;6.30;;
22916;SDS011;11624;53.250;7.456;2023-06-10T02:37:39;18.15;;;6.45;;
22916;SDS011;11624;53.250;7.456;2023-06-10T02:40:08;21.80;;;6.60;;
22916;SDS011;11624;53.250;7.456;2023-06-10T02:42:38;18.52;;;6.40;;
22916;SDS011;11624;53.250;7.456;2023-06-10T02:45:07;18.23;;;6.75;;
22916;SDS011;11624;53.250;7.456;2023-06-10T02:47:41;19.85;;;7.13;;
22916;SDS011;11624;53.250;7.456;2023-06-10T02:50:10;20.20;;;7.22;;
22916;SDS011;11624;53.250;7.456;2023-06-10T02:52:49;26.05;;;7.55;;
22916;SDS011;11624;53.250;7.456;2023-06-10T02:55:18;19.33;;;7.25;;
22916;SDS011;11624;53.250;7.456;2023-06-10T02:57:51;19.38;;;7.35;;
22916;SDS011;11624;53.250;7.456;2023-06-10T03:00:20;23.83;;;7.30;;
22916;SDS011;11624;53.250;7.456;2023-06-10T03:02:50;23.73;;;7.50;;
22916;SDS011;11624;53.250;7.456;2023-06-10T03:05:23;21.30;;;7.70;;
22916;SDS011;11624;53.250;7.456;2023-06-10T03:07:54;24.38;;;7.95;;
22916;SDS011;11624;53.250;7.456;2023-06-10T03:10:23;24.10;;;7.45;;
22916;SDS011;11624;53.250;7.456;2023-06-10T03:12:51;22.90;;;7.68;;
22916;SDS011;11624;53.250;7.456;2023-06-10T03:15:20;24.67;;;7.85;;
22916;SDS011;11624;53.250;7.456;2023-06-10T03:17:48;20.27;;;7.65;;
22916;SDS011;11624;53.250;7.456;2023-06-10T03:20:18;22.33;;;8.18;;
22916;SDS011;11624;53.250;7.456;2023-06-10T03:22:49;22.30;;;7.93;;
22916;SDS011;11624;53.250;7.456;2023-06-10T03:25:18;23.10;;;8.43;;
22916;SDS011;11624;53.250;7.456;2023-06-10T03:27:51;24.38;;;8.25;;
22916;SDS011;11624;53.250;7.456;2023-06-10T03:30:19;19.77;;;8.65;;
22916;SDS011;11624;53.250;7.456;2023-06-10T03:32:47;22.80;;;8.52;;
22916;SDS011;11624;53.250;7.456;2023-06-10T03:35:19;24.67;;;8.90;;
22916;SDS011;11624;53.250;7.456;2023-06-10T03:37:48;25.95;;;9.18;;
22916;SDS011;11624;53.250;7.456;2023-06-10T03:40:16;30.15;;;8.38;;
22916;SDS011;11624;53.250;7.456;2023-06-10T03:42:46;20.85;;;8.05;;
22916;SDS011;11624;53.250;7.456;2023-06-10T03:45:16;29.40;;;8.82;;
22916;SDS011;11624;53.250;7.456;2023-06-10T03:47:46;25.65;;;9.05;;
22916;SDS011;11624;53.250;7.456;2023-06-10T03:50:19;26.88;;;8.88;;
22916;SDS011;11624;53.250;7.456;2023-06-10T03:52:49;26.05;;;8.77;;
22916;SDS011;11624;53.250;7.456;2023-06-10T03:55:20;22.20;;;9.02;;
22916;SDS011;11624;53.250;7.456;2023-06-10T03:57:50;22.38;;;8.18;;
22916;SDS011;11624;53.250;7.456;2023-06-10T04:00:18;26.15;;;8.88;;
22916;SDS011;11624;53.250;7.456;2023-06-10T04:02:47;20.90;;;8.23;;
22916;SDS011;11624;53.250;7.456;2023-06-10T04:05:29;21.75;;;8.43;;
22916;SDS011;11624;53.250;7.456;2023-06-10T04:07:58;28.75;;;9.18;;
22916;SDS011;11624;53.250;7.456;2023-06-10T04:10:26;21.48;;;8.48;;
22916;SDS011;11624;53.250;7.456;2023-06-10T04:12:54;24.92;;;9.02;;
22916;SDS011;11624;53.250;7.456;2023-06-10T04:15:25;20.58;;;8.10;;
22916;SDS011;11624;53.250;7.456;2023-06-10T04:17:55;23.50;;;8.45;;
22916;SDS011;11624;53.250;7.456;2023-06-10T04:20:24;23.25;;;8.40;;
22916;SDS011;11624;53.250;7.456;2023-06-10T04:22:54;24.17;;;8.95;;
22916;SDS011;11624;53.250;7.456;2023-06-10T04:25:22;21.60;;;8.70;;
22916;SDS011;11624;53.250;7.456;2023-06-10T04:27:50;21.60;;;8.95;;
22916;SDS011;11624;53.250;7.456;2023-06-10T04:30:19;28.63;;;8.88;;
22916;SDS011;11624;53.250;7.456;2023-06-10T04:32:48;25.60;;;8.68;;
22916;SDS011;11624;53.250;7.456;2023-06-10T04:35:17;23.20;;;8.25;;
22916;SDS011;11624;53.250;7.456;2023-06-10T04:37:47;21.73;;;8.20;;
22916;SDS011;11624;53.250;7.456;2023-06-10T04:40:17;20.55;;;8.30;;
22916;SDS011;11624;53.250;7.456;2023-06-10T04:42:46;23.20;;;8.85;;
22916;SDS011;11624;53.250;7.456;2023-06-10T04:45:14;19.75;;;8.02;;
22916;SDS011;11624;53.250;7.456;2023-06-10T04:47:43;22.95;;;8.13;;
22916;SDS011;11624;53.250;7.456;2023-06-10T04:50:11;20.45;;;8.77;;
22916;SDS011;11624;53.250;7.456;2023-06-10T04:52:39;20.90;;;7.85;;
22916;SDS011;11624;53.250;7.456;2023-06-10T04:55:08;20.25;;;8.27;;
22916;SDS011;11624;53.250;7.456;2023-06-10T04:57:39;21.77;;;8.20;;
22916;SDS011;11624;53.250;7.456;2023-06-10T05:00:07;19.13;;;8.35;;
22916;SDS011;11624;53.250;7.456;2023-06-10T05:02:36;21.95;;;8.60;;
22916;SDS011;11624;53.250;7.456;2023-06-10T05:05:04;19.35;;;7.88;;
22916;SDS011;11624;53.250;7.456;2023-06-10T05:07:33;23.63;;;7.95;;
22916;SDS011;11624;53.250;7.456;2023-06-10T05:10:01;21.02;;;7.60;;
22916;SDS011;11624;53.250;7.456;2023-06-10T05:12:30;17.88;;;7.20;;
22916;SDS011;11624;53.250;7.456;2023-06-10T05:14:59;18.23;;;7.15;;
22916;SDS011;11624;53.250;7.456;2023-06-10T05:17:27;20.25;;;7.72;;
22916;SDS011;11624;53.250;7.456;2023-06-10T05:19:55;16.90;;;6.82;;
22916;SDS011;11624;53.250;7.456;2023-06-10T05:22:23;19.10;;;7.55;;
22916;SDS011;11624;53.250;7.456;2023-06-10T05:24:52;17.38;;;6.90;;
22916;SDS011;11624;53.250;7.456;2023-06-10T05:27:20;19.63;;;6.97;;
22916;SDS011;11624;53.250;7.456;2023-06-10T05:29:48;18.83;;;6.90;;
22916;SDS011;11624;53.250;7.456;2023-06-10T05:32:19;17.40;;;6.18;;
22916;SDS011;11624;53.250;7.456;2023-06-10T05:34:47;19.08;;;6.40;;
22916;SDS011;11624;53.250;7.456;2023-06-10T05:37:15;17.27;;;5.93;;
22916;SDS011;11624;53.250;7.456;2023-06-10T05:39:43;19.40;;;6.57;;
22916;SDS011;11624;53.250;7.456;2023-06-10T05:42:11;18.30;;;6.07;;
22916;SDS011;11624;53.250;7.456;2023-06-10T05:44:39;16.02;;;5.80;;
22916;SDS011;11624;53.250;7.456;2023-06-10T05:47:07;16.98;;;5.60;;
22916;SDS011;11624;53.250;7.456;2023-06-10T05:49:37;18.33;;;5.47;;
22916;SDS011;11624;53.250;7.456;2023-06-10T05:52:06;18.52;;;5.40;;
22916;SDS011;11624;53.250;7.456;2023-06-10T05:54:34;18.90;;;5.57;;
22916;SDS011;11624;53.250;7.456;2023-06-10T05:57:02;17.70;;;5.18;;
22916;SDS011;11624;53.250;7.456;2023-06-10T05:59:32;16.08;;;5.25;;
22916;SDS011;11624;53.250;7.456;2023-06-10T06:02:00;15.73;;;5.18;;
22916;SDS011;11624;53.250;7.456;2023-06-10T06:04:28;15.15;;;5.13;;
22916;SDS011;11624;53.250;7.456;2023-06-10T06:06:58;18.98;;;5.03;;
22916;SDS011;11624;53.250;7.456;2023-06-10T06:09:26;14.15;;;4.97;;
22916;SDS011;11624;53.250;7.456;2023-06-10T06:11:54;14.25;;;4.68;;
22916;SDS011;11624;53.250;7.456;2023-06-10T06:14:22;16.17;;;5.38;;
22916;SDS011;11624;53.250;7.456;2023-06-10T06:16:50;14.93;;;5.25;;
22916;SDS011;11624;53.250;7.456;2023-06-10T06:19:18;15.52;;;4.90;;
22916;SDS011;11624;53.250;7.456;2023-06-10T06:21:46;14.88;;;5.18;;
22916;SDS011;11624;53.250;7.456;2023-06-10T06:24:16;18.08;;;4.78;;
22916;SDS011;11624;53.250;7.456;2023-06-10T06:26:44;15.30;;;4.80;;
22916;SDS011;11624;53.250;7.456;2023-06-10T06:29:12;14.18;;;4.72;;
22916;SDS011;11624;53.250;7.456;2023-06-10T06:31:40;13.75;;;4.28;;
22916;SDS011;11624;53.250;7.456;2023-06-10T06:34:08;14.13;;;4.28;;
22916;SDS011;11624;53.250;7.456;2023-06-10T06:36:40;15.38;;;4.65;;
22916;SDS011;11624;53.250;7.456;2023-06-10T06:39:08;16.40;;;4.85;;
22916;SDS011;11624;53.250;7.456;2023-06-10T06:41:38;14.95;;;4.68;;
22916;SDS011;11624;53.250;7.456;2023-06-10T06:44:06;17.65;;;4.97;;
22916;SDS011;11624;53.250;7.456;2023-06-10T06:46:38;15.50;;;4.30;;
22916;SDS011;11624;53.250;7.456;2023-06-10T06:49:06;12.10;;;4.15;;
22916;SDS011;11624;53.250;7.456;2023-06-10T06:51:34;15.40;;;4.82;;
22916;SDS011;11624;53.250;7.456;2023-06-10T06:54:02;13.20;;;4.45;;
22916;SDS011;11624;53.250;7.456;2023-06-10T06:56:32;16.27;;;4.32;;
22916;SDS011;11624;53.250;7.456;2023-06-10T06:59:01;15.68;;;4.57;;
22916;SDS011;11624;53.250;7.456;2023-06-10T07:01:32;13.93;;;4.15;;
22916;SDS011;11624;53.250;7.456;2023-06-10T07:04:01;17.98;;;4.45;;
22916;SDS011;11624;53.250;7.456;2023-06-10T07:06:29;11.52;;;4.00;;
22916;SDS011;11624;53.250;7.456;2023-06-10T07:08:58;16.83;;;4.53;;
22916;SDS011;11624;53.250;7.456;2023-06-10T07:11:26;14.25;;;4.32;;
22916;SDS011;11624;53.250;7.456;2023-06-10T07:13:54;14.05;;;4.28;;
22916;SDS011;11624;53.250;7.456;2023-06-10T07:16:23;18.20;;;4.85;;
22916;SDS011;11624;53.250;7.456;2023-06-10T07:18:52;13.90;;;4.00;;
22916;SDS011;11624;53.250;7.456;2023-06-10T07:21:20;17.27;;;4.32;;
22916;SDS011;11624;53.250;7.456;2023-06-10T07:23:49;14.68;;;3.97;;
22916;SDS011;11624;53.250;7.456;2023-06-10T07:26:21;20.65;;;3.92;;
22916;SDS011;11624;53.250;7.456;2023-06-10T07:28:50;15.30;;;4.53;;
22916;SDS011;11624;53.250;7.456;2023-06-10T07:31:18;15.65;;;4.15;;
22916;SDS011;11624;53.250;7.456;2023-06-10T07:33:47;14.48;;;4.30;;
22916;SDS011;11624;53.250;7.456;2023-06-10T07:36:15;14.48;;;4.18;;
22916;SDS011;11624;53.250;7.456;2023-06-10T07:38:43;13.55;;;3.83;;
22916;SDS011;11624;53.250;7.456;2023-06-10T07:41:11;16.65;;;4.68;;
22916;SDS011;11624;53.250;7.456;2023-06-10T07:43:40;12.13;;;4.03;;
22916;SDS011;11624;53.250;7.456;2023-06-10T07:46:08;17.05;;;4.55;;
22916;SDS011;11624;53.250;7.456;2023-06-10T07:48:36;13.23;;;4.13;;
22916;SDS011;11624;53.250;7.456;2023-06-10T07:51:06;13.35;;;4.30;;
22916;SDS011;11624;53.250;7.456;2023-06-10T07:53:34;14.70;;;4.05;;
22916;SDS011;11624;53.250;7.456;2023-06-10T07:56:02;12.23;;;4.10;;
22916;SDS011;11624;53.250;7.456;2023-06-10T07:58:30;14.82;;;4.43;;
22916;SDS011;11624;53.250;7.456;2023-06-10T08:00:58;13.90;;;4.68;;
22916;SDS011;11624;53.250;7.456;2023-06-10T08:03:26;13.23;;;4.10;;
22916;SDS011;11624;53.250;7.456;2023-06-10T08:05:55;14.20;;;4.28;;
22916;SDS011;11624;53.250;7.456;2023-06-10T08:08:24;15.43;;;4.53;;
22916;SDS011;11624;53.250;7.456;2023-06-10T08:10:52;12.88;;;3.97;;
22916;SDS011;11624;53.250;7.456;2023-06-10T08:13:20;12.00;;;3.97;;
22916;SDS011;11624;53.250;7.456;2023-06-10T08:15:48;16.95;;;4.05;;
22916;SDS011;11624;53.250;7.456;2023-06-10T08:18:21;17.20;;;4.50;;
22916;SDS011;11624;53.250;7.456;2023-06-10T08:20:49;12.25;;;3.88;;
22916;SDS011;11624;53.250;7.456;2023-06-10T08:23:17;14.13;;;4.10;;
22916;SDS011;11624;53.250;7.456;2023-06-10T08:25:47;15.23;;;4.35;;
22916;SDS011;11624;53.250;7.456;2023-06-10T08:28:15;13.57;;;4.93;;
22916;SDS011;11624;53.250;7.456;2023-06-10T08:30:43;15.43;;;4.57;;
22916;SDS011;11624;53.250;7.456;2023-06-10T08:33:12;14.73;;;4.38;;
22916;SDS011;11624;53.250;7.456;2023-06-10T08:35:40;14.45;;;4.43;;
22916;SDS011;11624;53.250;7.456;2023-06-10T08:38:10;13.45;;;3.90;;
22916;SDS011;11624;53.250;7.456;2023-06-10T08:40:38;13.85;;;4.32;;
22916;SDS011;11624;53.250;7.456;2023-06-10T08:43:10;12.32;;;4.18;;
22916;SDS011;11624;53.250;7.456;2023-06-10T08:45:45;16.10;;;4.10;;
22916;SDS011;11624;53.250;7.456;2023-06-10T08:48:16;13.65;;;4.30;;
22916;SDS011;11624;53.250;7.456;2023-06-10T08:50:46;13.48;;;4.28;;
22916;SDS011;11624;53.250;7.456;2023-06-10T08:53:18;13.00;;;4.40;;
22916;SDS011;11624;53.250;7.456;2023-06-10T08:55:49;16.23;;;4.65;;
22916;SDS011;11624;53.250;7.456;2023-06-10T08:58:20;14.25;;;4.45;;
22916;SDS011;11624;53.250;7.456;2023-06-10T09:00:49;14.02;;;4.60;;
22916;SDS011;11624;53.250;7.456;2023-06-10T09:03:18;13.57;;;4.30;;
22916;SDS011;11624;53.250;7.456;2023-06-10T09:05:47;15.95;;;4.45;;
22916;SDS011;11624;53.250;7.456;2023-06-10T09:08:16;10.95;;;4.10;;
22916;SDS011;11624;53.250;7.456;2023-06-10T09:10:45;16.70;;;4.20;;
22916;SDS011;11624;53.250;7.456;2023-06-10T09:13:13;12.88;;;4.10;;
22916;SDS011;11624;53.250;7.456;2023-06-10T09:15:46;17.00;;;4.40;;
22916;SDS011;11624;53.250;7.456;2023-06-10T09:18:15;16.08;;;4.45;;
22916;SDS011;11624;53.250;7.456;2023-06-10T09:20:43;16.70;;;5.35;;
22916;SDS011;11624;53.250;7.456;2023-06-10T09:23:12;14.38;;;4.75;;
22916;SDS011;11624;53.250;7.456;2023-06-10T09:25:42;14.57;;;5.03;;
22916;SDS011;11624;53.250;7.456;2023-06-10T09:28:14;16.88;;;4.80;;
22916;SDS011;11624;53.250;7.456;2023-06-10T09:30:43;17.27;;;4.93;;
22916;SDS011;11624;53.250;7.456;2023-06-10T09:33:13;15.80;;;4.97;;
22916;SDS011;11624;53.250;7.456;2023-06-10T09:35:46;18.20;;;4.70;;
22916;SDS011;11624;53.250;7.456;2023-06-10T09:38:15;16.05;;;4.95;;
22916;SDS011;11624;53.250;7.456;2023-06-10T09:40:50;14.40;;;4.70;;
22916;SDS011;11624;53.250;7.456;2023-06-10T09:43:18;13.52;;;4.32;;
22916;SDS011;11624;53.250;7.456;2023-06-10T09:45:47;14.50;;;4.55;;
22916;SDS011;11624;53.250;7.456;2023-06-10T09:48:17;12.93;;;4.60;;
22916;SDS011;11624;53.250;7.456;2023-06-10T09:50:45;13.90;;;4.88;;
22916;SDS011;11624;53.250;7.456;2023-06-10T09:53:13;12.20;;;4.65;;
22916;SDS011;11624;53.250;7.456;2023-06-10T09:55:42;14.50;;;4.97;;
22916;SDS011;11624;53.250;7.456;2023-06-10T09:58:11;17.42;;;5.10;;
22916;SDS011;11624;53.250;7.456;2023-06-10T10:00:39;13.13;;;5.45;;
22916;SDS011;11624;53.250;7.456;2023-06-10T10:03:07;15.82;;;5.25;;
22916;SDS011;11624;53.250;7.456;2023-06-10T10:05:37;13.65;;;5.07;;
22916;SDS011;11624;53.250;7.456;2023-06-10T10:08:05;14.52;;;5.20;;
22916;SDS011;11624;53.250;7.456;2023-06-10T10:10:33;17.00;;;5.10;;
22916;SDS011;11624;53.250;7.456;2023-06-10T10:13:01;14.95;;;4.80;;
22916;SDS011;11624;53.250;7.456;2023-06-10T10:15:31;15.75;;;4.85;;
22916;SDS011;11624;53.250;7.456;2023-06-10T10:18:03;11.48;;;4.65;;
22916;SDS011;11624;53.250;7.456;2023-06-10T10:20:35;15.35;;;5.18;;
22916;SDS011;11624;53.250;7.456;2023-06-10T10:23:11;12.80;;;4.82;;
22916;SDS011;11624;53.250;7.456;2023-06-10T10:25:42;14.43;;;5.30;;
22916;SDS011;11624;53.250;7.456;2023-06-10T10:28:12;13.60;;;4.82;;
22916;SDS011;11624;53.250;7.456;2023-06-10T10:30:42;13.02;;;5.50;;
22916;SDS011;11624;53.250;7.456;2023-06-10T10:33:16;13.77;;;5.30;;
22916;SDS011;11624;53.250;7.456;2023-06-10T10:35:48;13.75;;;5.05;;
22916;SDS011;11624;53.250;7.456;2023-06-10T10:38:17;17.10;;;5.88;;
22916;SDS011;11624;53.250;7.456;2023-06-10T10:40:46;13.45;;;5.65;;
22916;SDS011;11624;53.250;7.456;2023-06-10T10:43:14;15.63;;;5.45;;
22916;SDS011;11624;53.250;7.456;2023-06-10T10:45:45;16.40;;;5.97;;
22916;SDS011;11624;53.250;7.456;2023-06-10T10:48:13;15.70;;;5.75;;
22916;SDS011;11624;53.250;7.456;2023-06-10T10:50:42;18.00;;;5.90;;
22916;SDS011;11624;53.250;7.456;2023-06-10T10:53:12;15.15;;;5.97;;
22916;SDS011;11624;53.250;7.456;2023-06-10T10:55:57;15.82;;;5.57;;
22916;SDS011;11624;53.250;7.456;2023-06-10T10:58:26;15.23;;;5.95;;
22916;SDS011;11624;53.250;7.456;2023-06-10T11:00:54;14.73;;;5.53;;
22916;SDS011;11624;53.250;7.456;2023-06-10T11:03:22;12.68;;;5.75;;
22916;SDS011;11624;53.250;7.456;2023-06-10T11:05:57;16.48;;;5.85;;
22916;SDS011;11624;53.250;7.456;2023-06-10T11:11:18;13.63;;;5.15;;
22916;SDS011;11624;53.250;7.456;2023-06-10T11:13:57;13.55;;;5.30;;
22916;SDS011;11624;53.250;7.456;2023-06-10T11:16:27;13.50;;;5.50;;
22916;SDS011;11624;53.250;7.456;2023-06-10T11:18:56;15.77;;;5.55;;
22916;SDS011;11624;53.250;7.456;2023-06-10T11:21:24;15.55;;;5.75;;
22916;SDS011;11624;53.250;7.456;2023-06-10T11:23:57;13.20;;;5.00;;
22916;SDS011;11624;53.250;7.456;2023-06-10T11:26:29;13.65;;;4.53;;
22916;SDS011;11624;53.250;7.456;2023-06-10T11:29:11;15.57;;;5.07;;
22916;SDS011;11624;53.250;7.456;2023-06-10T11:31:44;12.70;;;5.18;;
22916;SDS011;11624;53.250;7.456;2023-06-10T11:34:14;14.73;;;5.30;;
22916;SDS011;11624;53.250;7.456;2023-06-10T11:36:49;14.73;;;5.50;;
22916;SDS011;11624;53.250;7.456;2023-06-10T11:39:20;14.75;;;5.00;;
22916;SDS011;11624;53.250;7.456;2023-06-10T11:41:53;15.82;;;4.80;;
22916;SDS011;11624;53.250;7.456;2023-06-10T11:44:22;13.48;;;4.55;;
22916;SDS011;11624;53.250;7.456;2023-06-10T11:46:55;11.55;;;4.20;;
22916;SDS011;11624;53.250;7.456;2023-06-10T11:49:24;14.63;;;4.85;;
22916;SDS011;11624;53.250;7.456;2023-06-10T11:51:52;14.55;;;5.10;;
22916;SDS011;11624;53.250;7.456;2023-06-10T11:54:21;13.70;;;5.05;;
22916;SDS011;11624;53.250;7.456;2023-06-10T11:56:49;14.55;;;5.10;;
22916;SDS011;11624;53.250;7.456;2023-06-10T11:59:18;16.98;;;4.65;;
22916;SDS011;11624;53.250;7.456;2023-06-10T12:01:46;13.85;;;4.65;;
22916;SDS011;11624;53.250;7.456;2023-06-10T12:04:14;14.43;;;4.88;;
22916;SDS011;11624;53.250;7.456;2023-06-10T12:06:45;13.63;;;4.72;;
22916;SDS011;11624;53.250;7.456;2023-06-10T12:09:18;12.30;;;4.55;;
22916;SDS011;11624;53.250;7.456;2023-06-10T12:11:54;12.90;;;4.57;;
22916;SDS011;11624;53.250;7.456;2023-06-10T12:17:22;14.68;;;4.25;;
22916;SDS011;11624;53.250;7.456;2023-06-10T12:19:51;13.75;;;4.60;;
22916;SDS011;11624;53.250;7.456;2023-06-10T12:22:19;13.88;;;4.35;;
22916;SDS011;11624;53.250;7.456;2023-06-10T12:24:59;13.43;;;4.47;;
22916;SDS011;11624;53.250;7.456;2023-06-10T12:27:30;11.95;;;4.35;;
22916;SDS011;11624;53.250;7.456;2023-06-10T12:29:59;12.13;;;4.35;;
22916;SDS011;11624;53.250;7.456;2023-06-10T12:32:37;13.85;;;4.32;;
22916;SDS011;11624;53.250;7.456;2023-06-10T12:35:09;11.95;;;4.30;;
22916;SDS011;11624;53.250;7.456;2023-06-10T12:37:40;12.43;;;4.10;;
22916;SDS011;11624;53.250;7.456;2023-06-10T12:40:10;14.23;;;4.35;;
22916;SDS011;11624;53.250;7.456;2023-06-10T12:42:40;12.70;;;4.50;;
22916;SDS011;11624;53.250;7.456;2023-06-10T12:45:08;12.38;;;4.50;;
22916;SDS011;11624;53.250;7.456;2023-06-10T12:47:39;16.83;;;4.80;;
22916;SDS011;11624;53.250;7.456;2023-06-10T12:50:08;13.80;;;4.53;;
22916;SDS011;11624;53.250;7.456;2023-06-10T12:52:38;11.38;;;4.43;;
22916;SDS011;11624;53.250;7.456;2023-06-10T12:55:07;12.00;;;4.45;;
22916;SDS011;11624;53.250;7.456;2023-06-10T12:57:48;12.98;;;4.15;;
22916;SDS011;11624;53.250;7.456;2023-06-10T13:00:17;11.57;;;4.22;;
22916;SDS011;11624;53.250;7.456;2023-06-10T13:02:46;14.10;;;4.20;;
22916;SDS011;11624;53.250;7.456;2023-06-10T13:05:16;14.20;;;4.30;;
22916;SDS011;11624;53.250;7.456;2023-06-10T13:07:45;12.80;;;4.18;;
22916;SDS011;11624;53.250;7.456;2023-06-10T13:10:14;10.88;;;3.83;;
22916;SDS011;11624;53.250;7.456;2023-06-10T13:12:42;16.23;;;4.43;;
22916;SDS011;11624;53.250;7.456;2023-06-10T13:15:15;12.02;;;4.35;;
22916;SDS011;11624;53.250;7.456;2023-06-10T13:17:43;10.85;;;4.20;;
22916;SDS011;11624;53.250;7.456;2023-06-10T13:20:12;12.88;;;4.25;;
22916;SDS011;11624;53.250;7.456;2023-06-10T13:22:40;9.88;;;3.92;;
22916;SDS011;11624;53.250;7.456;2023-06-10T13:25:09;12.30;;;4.25;;
22916;SDS011;11624;53.250;7.456;2023-06-10T13:27:38;14.85;;;4.25;;
22916;SDS011;11624;53.250;7.456;2023-06-10T13:30:08;12.38;;;4.15;;
22916;SDS011;11624;53.250;7.456;2023-06-10T13:32:39;11.70;;;3.85;;
22916;SDS011;11624;53.250;7.456;2023-06-10T13:35:08;12.80;;;4.07;;
22916;SDS011;11624;53.250;7.456;2023-06-10T13:37:37;12.30;;;4.45;;
22916;SDS011;11624;53.250;7.456;2023-06-10T13:40:05;10.38;;;4.07;;
22916;SDS011;11624;53.250;7.456;2023-06-10T13:42:36;12.90;;;4.10;;
22916;SDS011;11624;53.250;7.456;2023-06-10T13:45:05;12.23;;;3.95;;
22916;SDS011;11624;53.250;7.456;2023-06-10T13:47:34;11.80;;;3.25;;
22916;SDS011;11624;53.250;7.456;2023-06-10T13:50:04;10.35;;;4.03;;
22916;SDS011;11624;53.250;7.456;2023-06-10T13:52:33;12.35;;;4.10;;
22916;SDS011;11624;53.250;7.456;2023-06-10T13:55:01;10.88;;;4.00;;
22916;SDS011;11624;53.250;7.456;2023-06-10T13:57:30;10.30;;;3.42;;
22916;SDS011;11624;53.250;7.456;2023-06-10T14:00:05;9.65;;;3.90;;
22916;SDS011;11624;53.250;7.456;2023-06-10T14:02:36;9.30;;;3.40;;
22916;SDS011;11624;53.250;7.456;2023-06-10T14:05:07;9.90;;;3.33;;
22916;SDS011;11624;53.250;7.456;2023-06-10T14:07:36;9.18;;;3.53;;
22916;SDS011;11624;53.250;7.456;2023-06-10T14:10:06;10.43;;;3.83;;
22916;SDS011;11624;53.250;7.456;2023-06-10T14:12:35;11.32;;;3.40;;
22916;SDS011;11624;53.250;7.456;2023-06-10T14:15:03;10.85;;;3.55;;
22916;SDS011;11624;53.250;7.456;2023-06-10T14:17:33;10.02;;;3.42;;
22916;SDS011;11624;53.250;7.456;2023-06-10T14:20:01;8.70;;;3.42;;
22916;SDS011;11624;53.250;7.456;2023-06-10T14:22:32;10.98;;;3.58;;
22916;SDS011;11624;53.250;7.456;2023-06-10T14:25:00;10.02;;;3.50;;
22916;SDS011;11624;53.250;7.456;2023-06-10T14:27:28;9.20;;;3.38;;
22916;SDS011;11624;53.250;7.456;2023-06-10T14:29:56;10.23;;;3.55;;
22916;SDS011;11624;53.250;7.456;2023-06-10T14:32:25;8.55;;;3.28;;
22916;SDS011;11624;53.250;7.456;2023-06-10T14:34:53;9.40;;;3.30;;
22916;SDS011;11624;53.250;7.456;2023-06-10T14:37:21;10.07;;;3.47;;
22916;SDS011;11624;53.250;7.456;2023-06-10T14:39:51;10.27;;;3.80;;
22916;SDS011;11624;53.250;7.456;2023-06-10T14:42:19;11.40;;;3.53;;
22916;SDS011;11624;53.250;7.456;2023-06-10T14:44:47;10.18;;;3.03;;
22916;SDS011;11624;53.250;7.456;2023-06-10T14:47:16;10.93;;;3.53;;
22916;SDS011;11624;53.250;7.456;2023-06-10T14:49:44;13.30;;;3.97;;
22916;SDS011;11624;53.250;7.456;2023-06-10T14:52:12;10.45;;;3.80;;
22916;SDS011;11624;53.250;7.456;2023-06-10T14:54:40;10.30;;;3.30;;